NCAR-RAP Real-Time Weather Data

Output produced by METARs form (17 October 2018  15:38 UTC)
found at http://weather.rap.ucar.edu/surface/
 
RJSI 171000Z 14002KT 9999 FEW030 10/08 Q1014
RJSI 170900Z 12002KT 9999 FEW030 10/08 Q1014
RJSI 170800Z 27003KT 230V310 9999 FEW030 12/07 Q1013
RJSI 170700Z 09003KT 9999 FEW030 SCT040 15/09 Q1012
RJSI 170600Z 13004KT 040V200 9999 FEW030 SCT040 16/09 Q1012
RJSI 170500Z 15003KT 100V190 9999 FEW030 SCT040 16/08 Q1012
RJSI 170400Z VRB02KT 9999 FEW020 SCT100 BKN150 15/08 Q1012
RJSI 170300Z VRB02KT 9999 FEW020 SCT100 BKN120 15/07 Q1012
RJSI 170200Z 02004KT 340V050 9999 FEW020 SCT100 BKN120 15/08 Q1012
RJSI 170100Z 01007KT 9999 FEW020 BKN120 15/10 Q1012
RJSI 170000Z 02003KT 9999 FEW015 BKN150 12/09 Q1013
RJSI 162300Z VRB02KT 9999 FEW004 BKN150 11/09 Q1012
RJSI 162240Z VRB02KT 9999 FEW003 BKN150 11/09 Q1012 RMK 1ST003 7AC150 A2990
RJSI 161000Z 18003KT 9999 FEW020 SCT080 BKN/// 13/12 Q1013
RJSI 160900Z VRB02KT 9999 FEW020 BKN070 BKN/// 14/12 Q1013
RJSI 160800Z 20003KT 9999 -SHRA FEW020 BKN050 BKN070 15/12 Q1013
RJSI 160700Z 21005KT 9999 FEW020 SCT050 BKN070 17/11 Q1013
RJSI 160600Z VRB01KT 9999 -SHRA FEW030 SCT050 BKN070 18/12 Q1012
RJSI 160500Z VRB02KT 9999 FEW030 SCT070 BKN/// 19/11 Q1012
RJSI 160400Z VRB01KT 9999 FEW030 SCT070 BKN/// 18/10 Q1013
RJSI 160300Z VRB01KT 9999 FEW030 SCT070 BKN/// 17/10 Q1014
RJSI 160200Z VRB01KT 9999 FEW020 SCT070 BKN/// 16/12 Q1014
RJSI 160100Z VRB02KT 9999 FEW003 BKN/// 13/10 Q1015
RJSI 160000Z VRB01KT 9999 PRFG FEW001 BKN/// 11/10 Q1016
RJSI 152300Z 02006KT 9999 R20/P2000N PRFG FEW001 SCT/// 10/09 Q1017
RJSI 152240Z 02005KT 9999 R20/P2000N PRFG FEW001 SCT/// 09/08 Q1017 RMK 2ST001 A3003 0800E-S
RJSI 151000Z 11001KT 9999 FEW040 BKN070 12/11 Q1017
RJSI 150900Z VRB01KT 9999 FEW040 BKN070 14/11 Q1017
RJSI 150800Z 21005KT 9999 FEW040 SCT/// 16/10 Q1017
RJSI 150700Z 21004KT 180V250 9999 FEW040 SCT/// 18/10 Q1017
RJSI 150600Z 18004KT 110V250 9999 FEW030 BKN/// 19/09 Q1017
RJSI 150500Z 19006KT 160V240 9999 FEW020 BKN/// 18/11 Q1017
RJSI 150400Z 20004KT 160V230 9999 FEW020 BKN/// 17/12 Q1017